createdAt,value
2023-05-14T00:00:08.771Z,20.59
2023-05-14T00:01:08.817Z,20.59
2023-05-14T00:02:08.903Z,20.59
2023-05-14T00:03:09.059Z,20.58
2023-05-14T00:04:08.981Z,20.58
2023-05-14T00:05:09.007Z,20.58
2023-05-14T00:06:09.041Z,20.58
2023-05-14T00:07:09.086Z,20.58
2023-05-14T00:08:09.137Z,20.58
2023-05-14T00:09:09.200Z,20.58
2023-05-14T00:10:09.225Z,20.58
2023-05-14T00:11:09.264Z,20.57
2023-05-14T00:12:09.325Z,20.58
2023-05-14T00:13:09.362Z,20.58
2023-05-14T00:14:09.420Z,20.57
2023-05-14T00:15:09.455Z,20.58
2023-05-14T00:16:09.560Z,20.57
2023-05-14T00:17:09.534Z,20.58
2023-05-14T00:18:09.636Z,20.58
2023-05-14T00:19:09.693Z,20.58
2023-05-14T00:20:09.672Z,20.56
2023-05-14T00:21:09.724Z,20.57
2023-05-14T00:22:09.760Z,20.57
2023-05-14T00:23:09.817Z,20.57
2023-05-14T00:24:09.836Z,20.56
2023-05-14T00:25:09.877Z,20.55
2023-05-14T00:26:09.913Z,20.55
2023-05-14T00:27:09.964Z,20.55
2023-05-14T00:28:10.010Z,20.55
2023-05-14T00:29:10.052Z,20.55
2023-05-14T00:30:10.096Z,20.56
2023-05-14T00:31:10.169Z,20.55
2023-05-14T00:32:10.184Z,20.55
2023-05-14T00:33:10.244Z,20.55
2023-05-14T00:34:10.285Z,20.55
2023-05-14T00:35:10.353Z,20.55
2023-05-14T00:36:10.375Z,20.55
2023-05-14T00:37:10.431Z,20.56
2023-05-14T00:38:10.481Z,20.55
2023-05-14T00:39:10.511Z,20.55
2023-05-14T00:40:10.596Z,20.55
2023-05-14T00:41:10.627Z,20.54
2023-05-14T00:42:10.679Z,20.54
2023-05-14T00:43:10.724Z,20.54
2023-05-14T00:44:10.773Z,20.53
2023-05-14T00:45:10.826Z,20.54
2023-05-14T00:46:10.901Z,20.53
2023-05-14T00:47:10.929Z,20.53
2023-05-14T00:48:10.967Z,20.53
2023-05-14T00:49:11.020Z,20.52
2023-05-14T00:50:11.082Z,20.52
2023-05-14T00:51:11.160Z,20.52
2023-05-14T00:52:11.170Z,20.53
2023-05-14T00:53:11.224Z,20.53
2023-05-14T00:54:11.285Z,20.53
2023-05-14T00:55:11.323Z,20.52
2023-05-14T00:56:11.372Z,20.52
2023-05-14T00:57:11.435Z,20.52
2023-05-14T00:58:11.497Z,20.52
2023-05-14T00:59:11.538Z,20.52
2023-05-14T01:00:11.596Z,20.51
2023-05-14T01:01:11.640Z,20.51
2023-05-14T01:02:11.682Z,20.52
2023-05-14T01:03:11.944Z,20.52
2023-05-14T01:04:11.779Z,20.51
2023-05-14T01:05:11.837Z,20.52
2023-05-14T01:06:11.872Z,20.52
2023-05-14T01:07:11.930Z,20.51
2023-05-14T01:08:11.988Z,20.51
2023-05-14T01:09:12.032Z,20.51
2023-05-14T01:10:12.083Z,20.51
2023-05-14T01:11:12.136Z,20.51
2023-05-14T01:12:12.205Z,20.51
2023-05-14T01:13:12.253Z,20.51
2023-05-14T01:14:12.303Z,20.51
2023-05-14T01:15:12.365Z,20.51
2023-05-14T01:16:12.454Z,20.51
2023-05-14T01:17:12.463Z,20.51
2023-05-14T01:18:12.619Z,20.51
2023-05-14T01:19:12.616Z,20.51
2023-05-14T01:20:12.637Z,20.50
2023-05-14T01:21:12.733Z,20.51
2023-05-14T01:22:12.739Z,20.50
2023-05-14T01:23:12.786Z,20.50
2023-05-14T01:24:12.850Z,20.51
2023-05-14T01:25:12.896Z,20.50
2023-05-14T01:26:12.956Z,20.50
2023-05-14T01:27:13.011Z,20.50
2023-05-14T01:28:13.074Z,20.50
2023-05-14T01:29:13.113Z,20.48
2023-05-14T01:30:13.164Z,20.49
2023-05-14T01:31:13.223Z,20.50
2023-05-14T01:32:13.295Z,20.50
2023-05-14T01:33:13.346Z,20.49
2023-05-14T01:34:13.393Z,20.49
2023-05-14T01:35:13.473Z,20.49
2023-05-14T01:36:13.502Z,20.48
2023-05-14T01:37:13.577Z,20.49
2023-05-14T01:38:13.610Z,20.49
2023-05-14T01:39:13.673Z,20.49
2023-05-14T01:40:13.743Z,20.48
2023-05-14T01:41:13.787Z,20.48
2023-05-14T01:42:13.840Z,20.48
2023-05-14T01:43:13.919Z,20.48
2023-05-14T01:44:13.952Z,20.48
2023-05-14T01:45:14.114Z,20.48
2023-05-14T01:46:14.110Z,20.48
2023-05-14T01:47:14.110Z,20.49
2023-05-14T01:48:14.157Z,20.48
2023-05-14T01:49:14.240Z,20.48
2023-05-14T01:50:14.283Z,20.48
2023-05-14T01:51:14.324Z,20.48
2023-05-14T01:52:14.389Z,20.48
2023-05-14T01:53:14.457Z,20.48
2023-05-14T01:54:14.498Z,20.47
2023-05-14T01:55:14.559Z,20.48
2023-05-14T01:56:14.614Z,20.47
2023-05-14T01:57:14.686Z,20.48
2023-05-14T01:58:14.733Z,20.48
2023-05-14T01:59:14.810Z,20.48
2023-05-14T02:00:14.857Z,20.48
2023-05-14T02:01:14.925Z,20.48
2023-05-14T02:02:14.958Z,20.48
2023-05-14T02:03:15.022Z,20.47
2023-05-14T02:04:15.127Z,20.47
2023-05-14T02:05:15.151Z,20.47
2023-05-14T02:06:15.202Z,20.47
2023-05-14T02:07:15.255Z,20.47
2023-05-14T02:08:15.304Z,20.48
2023-05-14T02:09:15.363Z,20.48
2023-05-14T02:10:15.431Z,20.47
2023-05-14T02:11:15.475Z,20.47
2023-05-14T02:12:15.526Z,20.48
2023-05-14T02:13:15.591Z,20.47
2023-05-14T02:14:15.642Z,20.46
2023-05-14T02:15:15.715Z,20.47
2023-05-14T02:16:15.772Z,20.47
2023-05-14T02:17:15.833Z,20.47
2023-05-14T02:18:15.872Z,20.47
2023-05-14T02:19:15.956Z,20.47
2023-05-14T02:20:15.991Z,20.47
2023-05-14T02:21:16.055Z,20.47
2023-05-14T02:22:16.101Z,20.47
2023-05-14T02:23:16.153Z,20.46
2023-05-14T02:24:16.270Z,20.45
2023-05-14T02:25:16.279Z,20.46
2023-05-14T02:26:16.313Z,20.46
2023-05-14T02:27:16.380Z,20.47
2023-05-14T02:28:16.433Z,20.46
2023-05-14T02:29:16.511Z,20.46
2023-05-14T02:30:16.649Z,20.46
2023-05-14T02:31:16.652Z,20.46
2023-05-14T02:32:16.717Z,20.46
2023-05-14T02:33:16.855Z,20.46
2023-05-14T02:34:16.783Z,20.45
2023-05-14T02:35:16.823Z,20.46
2023-05-14T02:36:16.902Z,20.45
2023-05-14T02:37:16.954Z,20.45
2023-05-14T02:38:16.996Z,20.44
2023-05-14T02:39:17.051Z,20.45
2023-05-14T02:40:17.133Z,20.45
2023-05-14T02:41:17.160Z,20.44
2023-05-14T02:42:17.215Z,20.45
2023-05-14T02:43:17.277Z,20.43
2023-05-14T02:44:17.327Z,20.44
2023-05-14T02:45:17.378Z,20.45
2023-05-14T02:46:17.480Z,20.44
2023-05-14T02:47:17.500Z,20.44
2023-05-14T02:48:17.561Z,20.44
2023-05-14T02:49:17.628Z,20.44
2023-05-14T02:50:17.699Z,20.44
2023-05-14T02:51:17.726Z,20.43
2023-05-14T02:52:17.782Z,20.44
2023-05-14T02:53:17.853Z,20.44
2023-05-14T02:54:17.895Z,20.43
2023-05-14T02:55:17.959Z,20.43
2023-05-14T02:56:18.019Z,20.42
2023-05-14T02:57:18.072Z,20.42
2023-05-14T02:58:18.118Z,20.43
2023-05-14T02:59:18.183Z,20.43
2023-05-14T03:00:18.246Z,20.44
2023-05-14T03:01:18.318Z,20.42
2023-05-14T03:02:18.388Z,20.43
2023-05-14T03:03:18.473Z,20.43
2023-05-14T03:04:18.472Z,20.43
2023-05-14T03:05:18.528Z,20.42
2023-05-14T03:06:18.593Z,20.43
2023-05-14T03:07:18.656Z,20.42
2023-05-14T03:08:18.710Z,20.42
2023-05-14T03:09:18.766Z,20.42
2023-05-14T03:10:18.817Z,20.42
2023-05-14T03:11:18.877Z,20.42
2023-05-14T03:12:18.936Z,20.42
2023-05-14T03:13:18.990Z,20.41
2023-05-14T03:14:19.045Z,20.42
2023-05-14T03:15:19.093Z,20.41
2023-05-14T03:16:19.200Z,20.42
2023-05-14T03:17:19.276Z,20.42
2023-05-14T03:18:19.265Z,20.41
2023-05-14T03:19:19.322Z,20.41
2023-05-14T03:20:19.380Z,20.41
2023-05-14T03:21:19.445Z,20.41
2023-05-14T03:22:19.495Z,20.41
2023-05-14T03:23:19.538Z,20.41
2023-05-14T03:24:19.610Z,20.41
2023-05-14T03:25:19.649Z,20.42
2023-05-14T03:26:19.708Z,20.42
2023-05-14T03:27:19.770Z,20.42
2023-05-14T03:28:19.830Z,20.41
2023-05-14T03:29:19.884Z,20.41
2023-05-14T03:30:19.932Z,20.41
2023-05-14T03:31:20.061Z,20.41
2023-05-14T03:32:20.146Z,20.40
2023-05-14T03:33:20.118Z,20.40
2023-05-14T03:34:20.156Z,20.40
2023-05-14T03:35:20.222Z,20.40
2023-05-14T03:36:20.282Z,20.40
2023-05-14T03:37:20.344Z,20.40
2023-05-14T03:38:20.395Z,20.40
2023-05-14T03:39:20.445Z,20.40
2023-05-14T03:40:20.536Z,20.40
2023-05-14T03:41:20.559Z,20.40
2023-05-14T03:42:20.611Z,20.40
2023-05-14T03:43:20.662Z,20.40
2023-05-14T03:44:20.707Z,20.40
2023-05-14T03:45:20.766Z,20.40
2023-05-14T03:46:20.818Z,20.40
2023-05-14T03:47:20.875Z,20.40
2023-05-14T03:48:21.011Z,20.39
2023-05-14T03:49:20.995Z,20.40
2023-05-14T03:50:21.152Z,20.39
2023-05-14T03:51:21.099Z,20.39
2023-05-14T03:52:21.150Z,20.39
2023-05-14T03:53:21.222Z,20.39
2023-05-14T03:54:21.304Z,20.39
2023-05-14T03:55:21.377Z,20.39
2023-05-14T03:56:21.400Z,20.39
2023-05-14T03:57:21.454Z,20.40
2023-05-14T03:58:21.485Z,20.39
2023-05-14T03:59:21.536Z,20.39
2023-05-14T04:00:21.886Z,20.39
2023-05-14T04:01:21.650Z,20.39
2023-05-14T04:02:21.746Z,20.40
2023-05-14T04:03:21.842Z,20.39
2023-05-14T04:04:21.866Z,20.39
2023-05-14T04:05:21.891Z,20.39
2023-05-14T04:06:21.951Z,20.39
2023-05-14T04:07:22.006Z,20.40
2023-05-14T04:08:22.071Z,20.40
2023-05-14T04:09:22.126Z,20.40
2023-05-14T04:10:22.539Z,20.40
2023-05-14T04:11:22.247Z,20.40
2023-05-14T04:12:22.297Z,20.40
2023-05-14T04:13:22.367Z,20.40
2023-05-14T04:14:22.418Z,20.40
2023-05-14T04:15:22.477Z,20.40
2023-05-14T04:16:22.595Z,20.40
2023-05-14T04:17:22.585Z,20.40
2023-05-14T04:18:22.657Z,20.40
2023-05-14T04:19:22.714Z,20.39
2023-05-14T04:20:22.884Z,20.40
2023-05-14T04:21:22.821Z,20.40
2023-05-14T04:22:22.873Z,20.39
2023-05-14T04:23:22.941Z,20.39
2023-05-14T04:24:22.987Z,20.39
2023-05-14T04:25:23.042Z,20.39
2023-05-14T04:26:23.098Z,20.39
2023-05-14T04:27:23.158Z,20.39
2023-05-14T04:28:23.271Z,20.39
2023-05-14T04:29:23.272Z,20.39
2023-05-14T04:30:23.483Z,20.39
2023-05-14T04:31:23.448Z,20.39
2023-05-14T04:32:23.471Z,20.39
2023-05-14T04:33:23.504Z,20.40
2023-05-14T04:34:23.560Z,20.39
2023-05-14T04:35:25.196Z,20.39
2023-05-14T04:36:23.671Z,20.39
2023-05-14T04:37:23.727Z,20.40
2023-05-14T04:38:23.784Z,20.40
2023-05-14T04:39:23.850Z,20.39
2023-05-14T04:40:24.288Z,20.41
2023-05-14T04:41:23.969Z,20.40
2023-05-14T04:42:24.046Z,20.41
2023-05-14T04:43:24.084Z,20.41
2023-05-14T04:44:24.148Z,20.40
2023-05-14T04:45:24.210Z,20.41
2023-05-14T04:46:24.314Z,20.41
2023-05-14T04:47:24.335Z,20.41
2023-05-14T04:48:24.373Z,20.41
2023-05-14T04:49:24.438Z,20.42
2023-05-14T04:50:24.748Z,20.42
2023-05-14T04:51:24.552Z,20.42
2023-05-14T04:52:24.612Z,20.42
2023-05-14T04:53:24.674Z,20.42
2023-05-14T04:54:24.756Z,20.43
2023-05-14T04:55:24.800Z,20.42
2023-05-14T04:56:24.851Z,20.42
2023-05-14T04:57:24.913Z,20.42
2023-05-14T04:58:24.957Z,20.42
2023-05-14T04:59:25.015Z,20.42
2023-05-14T05:00:25.359Z,20.42
2023-05-14T05:01:25.174Z,20.41
2023-05-14T05:02:25.253Z,20.42
2023-05-14T05:03:25.551Z,20.41
2023-05-14T05:04:25.321Z,20.41
2023-05-14T05:05:25.370Z,20.40
2023-05-14T05:06:25.444Z,20.40
2023-05-14T05:07:25.493Z,20.41
2023-05-14T05:08:25.549Z,20.41
2023-05-14T05:09:25.602Z,20.41
2023-05-14T05:10:25.901Z,20.41
2023-05-14T05:11:25.720Z,20.41
2023-05-14T05:12:25.776Z,20.41
2023-05-14T05:13:25.831Z,20.42
2023-05-14T05:14:25.894Z,20.41
2023-05-14T05:15:26.566Z,20.41
2023-05-14T05:16:26.132Z,20.41
2023-05-14T05:17:26.113Z,20.41
2023-05-14T05:18:26.233Z,20.41
2023-05-14T05:19:35.815Z,20.41
2023-05-14T05:20:27.185Z,20.41
2023-05-14T05:21:26.182Z,20.41
2023-05-14T05:22:26.181Z,20.42
2023-05-14T05:23:26.158Z,20.42
2023-05-14T05:24:26.157Z,20.42
2023-05-14T05:25:26.157Z,20.42
2023-05-14T05:26:26.155Z,20.43
2023-05-14T05:27:26.140Z,20.42
2023-05-14T05:28:26.132Z,20.42
2023-05-14T05:29:26.146Z,20.42
2023-05-14T05:30:26.387Z,20.42
2023-05-14T05:31:26.296Z,20.42
2023-05-14T05:32:26.332Z,20.43
2023-05-14T05:33:26.382Z,20.43
2023-05-14T05:34:26.439Z,20.43
2023-05-14T05:35:26.490Z,20.43
2023-05-14T05:36:26.547Z,20.43
2023-05-14T05:37:26.605Z,20.44
2023-05-14T05:38:26.672Z,20.44
2023-05-14T05:39:26.718Z,20.43
2023-05-14T05:40:26.780Z,20.43
2023-05-14T05:41:26.846Z,20.44
2023-05-14T05:42:26.893Z,20.44
2023-05-14T05:43:26.949Z,20.44
2023-05-14T05:44:27.023Z,20.44
2023-05-14T05:45:27.061Z,20.44
2023-05-14T05:46:27.149Z,20.45
2023-05-14T05:47:27.222Z,20.45
2023-05-14T05:48:27.242Z,20.45
2023-05-14T05:49:27.292Z,20.44
2023-05-14T05:50:27.342Z,20.44
2023-05-14T05:51:27.401Z,20.45
2023-05-14T05:52:27.456Z,20.45
2023-05-14T05:53:27.511Z,20.45
2023-05-14T05:54:27.580Z,20.45
2023-05-14T05:55:27.623Z,20.44
2023-05-14T05:56:27.673Z,20.45
2023-05-14T05:57:27.748Z,20.44
2023-05-14T05:58:27.795Z,20.45
2023-05-14T05:59:27.844Z,20.45
2023-05-14T06:00:27.915Z,20.46
2023-05-14T06:01:27.959Z,20.45
2023-05-14T06:02:28.139Z,20.45
2023-05-14T06:03:28.063Z,20.45
2023-05-14T06:04:28.126Z,20.45
2023-05-14T06:05:28.230Z,20.45
2023-05-14T06:06:28.243Z,20.45
2023-05-14T06:07:28.298Z,20.46
2023-05-14T06:08:28.365Z,20.46
2023-05-14T06:09:28.413Z,20.46
2023-05-14T06:10:28.471Z,20.46
2023-05-14T06:11:28.522Z,20.46
2023-05-14T06:12:28.580Z,20.45
2023-05-14T06:13:28.635Z,20.46
2023-05-14T06:14:28.682Z,20.46
2023-05-14T06:15:28.764Z,20.46
2023-05-14T06:16:28.867Z,20.45
2023-05-14T06:17:28.893Z,20.46
2023-05-14T06:18:28.932Z,20.45
2023-05-14T06:19:28.983Z,20.46
2023-05-14T06:20:29.042Z,20.46
2023-05-14T06:21:29.074Z,20.46
2023-05-14T06:22:29.131Z,20.47
2023-05-14T06:23:29.185Z,20.47
2023-05-14T06:24:29.227Z,20.47
2023-05-14T06:25:29.296Z,20.47
2023-05-14T06:26:29.342Z,20.47
2023-05-14T06:27:29.394Z,20.47
2023-05-14T06:28:29.450Z,20.47
2023-05-14T06:29:29.496Z,20.48
2023-05-14T06:30:29.580Z,20.48
2023-05-14T06:31:29.653Z,20.49
2023-05-14T06:32:29.684Z,20.48
2023-05-14T06:33:29.770Z,20.49
2023-05-14T06:34:29.756Z,20.50
2023-05-14T06:35:29.813Z,20.50
2023-05-14T06:36:29.906Z,20.50
2023-05-14T06:37:29.919Z,20.50
2023-05-14T06:38:29.967Z,20.50
2023-05-14T06:39:30.015Z,20.51
2023-05-14T06:40:30.070Z,20.51
2023-05-14T06:41:30.137Z,20.51
2023-05-14T06:42:30.185Z,20.51
2023-05-14T06:43:30.236Z,20.51
2023-05-14T06:44:30.287Z,20.51
2023-05-14T06:45:31.786Z,20.52
2023-05-14T06:46:30.329Z,20.52
2023-05-14T06:47:30.324Z,20.52
2023-05-14T06:48:30.331Z,20.52
2023-05-14T06:49:30.304Z,20.53
2023-05-14T06:50:30.294Z,20.53
2023-05-14T06:51:30.293Z,20.53
2023-05-14T06:52:30.284Z,20.53
2023-05-14T06:53:30.276Z,20.52
2023-05-14T06:54:30.265Z,20.53
2023-05-14T06:55:30.251Z,20.53
2023-05-14T06:56:30.266Z,20.53
2023-05-14T06:57:30.249Z,20.54
2023-05-14T06:58:30.252Z,20.55
2023-05-14T06:59:30.237Z,20.55
2023-05-14T07:00:30.213Z,20.55
2023-05-14T07:01:30.281Z,20.55
2023-05-14T07:02:30.222Z,20.57
2023-05-14T07:03:30.195Z,20.56
2023-05-14T07:04:30.236Z,20.58
2023-05-14T07:05:30.195Z,20.57
2023-05-14T07:06:30.177Z,20.58
2023-05-14T07:07:30.168Z,20.58
2023-05-14T07:08:30.162Z,20.59
2023-05-14T07:09:30.145Z,20.59
2023-05-14T07:10:30.157Z,20.60
2023-05-14T07:11:30.131Z,20.60
2023-05-14T07:12:30.132Z,20.61
2023-05-14T07:13:30.125Z,20.62
2023-05-14T07:14:30.118Z,20.62
2023-05-14T07:15:30.106Z,20.63
2023-05-14T07:16:30.134Z,20.63
2023-05-14T07:17:30.187Z,20.65
2023-05-14T07:18:30.128Z,20.67
2023-05-14T07:19:30.102Z,20.67
2023-05-14T07:20:30.135Z,20.68
2023-05-14T07:21:30.062Z,20.69
2023-05-14T07:22:30.058Z,20.71
2023-05-14T07:23:30.055Z,20.72
2023-05-14T07:24:30.035Z,20.73
2023-05-14T07:25:30.040Z,20.74
2023-05-14T07:26:30.025Z,20.75
2023-05-14T07:27:30.032Z,20.76
2023-05-14T07:28:30.022Z,20.77
2023-05-14T07:29:30.009Z,20.78
2023-05-14T07:30:29.990Z,20.79
2023-05-14T07:31:30.005Z,20.82
2023-05-14T07:32:30.014Z,20.82
2023-05-14T07:33:29.966Z,20.83
2023-05-14T07:34:29.961Z,20.83
2023-05-14T07:35:29.978Z,20.84
2023-05-14T07:36:30.048Z,20.85
2023-05-14T07:37:30.026Z,20.86
2023-05-14T07:38:30.053Z,20.87
2023-05-14T07:39:30.084Z,20.88
2023-05-14T07:40:30.112Z,20.88
2023-05-14T07:41:30.129Z,20.89
2023-05-14T07:42:36.680Z,20.91
2023-05-14T07:43:31.165Z,20.91
2023-05-14T07:44:30.136Z,20.93
2023-05-14T07:45:30.131Z,20.93
2023-05-14T07:46:30.127Z,20.95
2023-05-14T07:47:30.224Z,20.95
2023-05-14T07:48:30.187Z,20.96
2023-05-14T07:49:30.103Z,20.95
2023-05-14T07:50:30.098Z,20.95
2023-05-14T07:51:30.093Z,20.96
2023-05-14T07:52:30.084Z,20.96
2023-05-14T07:53:30.068Z,20.96
2023-05-14T07:54:30.072Z,20.96
2023-05-14T07:55:30.047Z,20.97
2023-05-14T07:56:30.047Z,20.98
2023-05-14T07:57:30.042Z,21.00
2023-05-14T07:58:30.033Z,21.00
2023-05-14T07:59:30.028Z,21.01
2023-05-14T08:00:30.026Z,21.02
2023-05-14T08:01:30.018Z,21.02
2023-05-14T08:02:30.152Z,21.05
2023-05-14T08:03:30.041Z,21.07
2023-05-14T08:04:30.044Z,21.09
2023-05-14T08:05:30.013Z,21.10
2023-05-14T08:06:30.035Z,21.10
2023-05-14T08:07:30.115Z,21.11
2023-05-14T08:08:30.048Z,21.11
2023-05-14T08:09:30.054Z,21.12
2023-05-14T08:10:30.264Z,21.13
2023-05-14T08:11:30.075Z,21.13
2023-05-14T08:12:30.086Z,21.14
2023-05-14T08:13:30.103Z,21.14
2023-05-14T08:14:30.095Z,21.15
2023-05-14T08:15:30.109Z,21.16
2023-05-14T08:16:30.157Z,21.17
2023-05-14T08:17:30.169Z,21.17
2023-05-14T08:18:30.174Z,21.17
2023-05-14T08:19:30.139Z,21.18
2023-05-14T08:20:30.131Z,21.18
2023-05-14T08:21:30.146Z,21.18
2023-05-14T08:22:30.166Z,21.18
2023-05-14T08:23:30.140Z,21.17
2023-05-14T08:24:30.148Z,21.18
2023-05-14T08:25:30.159Z,21.18
2023-05-14T08:26:30.151Z,21.19
2023-05-14T08:27:30.157Z,21.19
2023-05-14T08:28:30.171Z,21.19
2023-05-14T08:29:30.163Z,21.19
2023-05-14T08:30:30.270Z,21.18
2023-05-14T08:31:30.259Z,21.18
2023-05-14T08:32:30.201Z,21.16
2023-05-14T08:33:30.163Z,21.15
2023-05-14T08:34:30.188Z,21.15
2023-05-14T08:35:30.187Z,21.16
2023-05-14T08:36:30.259Z,21.16
2023-05-14T08:37:30.197Z,21.17
2023-05-14T08:38:30.204Z,21.16
2023-05-14T08:39:31.095Z,21.17
2023-05-14T08:40:30.223Z,21.17
2023-05-14T08:41:30.218Z,21.17
2023-05-14T08:42:30.228Z,21.17
2023-05-14T08:43:30.229Z,21.16
2023-05-14T08:44:30.233Z,21.16
2023-05-14T08:45:30.236Z,21.16
2023-05-14T08:46:30.247Z,21.15
2023-05-14T08:47:30.282Z,21.15
2023-05-14T08:48:30.323Z,21.15
2023-05-14T08:49:30.272Z,21.15
2023-05-14T08:50:30.641Z,21.15
2023-05-14T08:51:30.290Z,21.14
2023-05-14T08:52:30.293Z,21.14
2023-05-14T08:53:30.300Z,21.14
2023-05-14T08:54:30.310Z,21.14
2023-05-14T08:55:30.313Z,21.14
2023-05-14T08:56:30.315Z,21.14
2023-05-14T08:57:30.336Z,21.14
2023-05-14T08:58:30.336Z,21.13
2023-05-14T08:59:30.337Z,21.13
2023-05-14T09:00:30.341Z,21.13
2023-05-14T09:01:30.342Z,21.13
2023-05-14T09:02:30.382Z,21.13
2023-05-14T09:03:30.398Z,21.13
2023-05-14T09:04:30.406Z,21.13
2023-05-14T09:05:30.391Z,21.13
2023-05-14T09:06:30.380Z,21.14
2023-05-14T09:07:30.402Z,21.14
2023-05-14T09:08:30.408Z,21.14
2023-05-14T09:09:30.423Z,21.14
2023-05-14T09:10:30.451Z,21.13
2023-05-14T09:11:30.442Z,21.14
2023-05-14T09:12:30.467Z,21.13
2023-05-14T09:13:30.465Z,21.14
2023-05-14T09:14:30.476Z,21.13
2023-05-14T09:15:30.498Z,21.13
2023-05-14T09:16:30.527Z,21.13
2023-05-14T09:17:30.541Z,21.13
2023-05-14T09:18:30.516Z,21.13
2023-05-14T09:19:30.522Z,21.13
2023-05-14T09:20:30.540Z,21.13
2023-05-14T09:22:30.577Z,21.13
2023-05-14T09:23:30.575Z,21.14
2023-05-14T09:24:30.586Z,21.14
2023-05-14T09:25:30.599Z,21.14
2023-05-14T09:26:30.627Z,21.14
2023-05-14T09:27:30.630Z,21.14
2023-05-14T09:28:30.640Z,21.14
2023-05-14T09:29:30.652Z,21.14
2023-05-14T09:30:30.672Z,21.14
2023-05-14T09:31:30.702Z,21.15
2023-05-14T09:32:30.729Z,21.14
2023-05-14T09:33:30.691Z,21.15
2023-05-14T09:34:30.739Z,21.15
2023-05-14T09:35:30.714Z,21.15
2023-05-14T09:36:30.719Z,21.15
2023-05-14T09:37:30.769Z,21.16
2023-05-14T09:38:30.750Z,21.17
2023-05-14T09:39:30.797Z,21.16
2023-05-14T09:40:30.776Z,21.17
2023-05-14T09:41:30.793Z,21.17
2023-05-14T09:42:30.805Z,21.18
2023-05-14T09:43:30.800Z,21.18
2023-05-14T09:44:30.811Z,21.18
2023-05-14T09:45:30.819Z,21.18
2023-05-14T09:46:30.828Z,21.20
2023-05-14T09:47:30.903Z,21.19
2023-05-14T09:48:30.866Z,21.20
2023-05-14T09:49:30.861Z,21.21
2023-05-14T09:50:30.859Z,21.21
2023-05-14T09:51:30.857Z,21.22
2023-05-14T09:52:30.870Z,21.23
2023-05-14T09:53:30.864Z,21.24
2023-05-14T09:54:30.871Z,21.24
2023-05-14T09:55:30.872Z,21.25
2023-05-14T09:56:30.886Z,21.24
2023-05-14T09:57:30.889Z,21.25
2023-05-14T09:58:30.879Z,21.25
2023-05-14T09:59:30.873Z,21.26
2023-05-14T10:00:30.885Z,21.25
2023-05-14T10:01:30.900Z,21.26
2023-05-14T10:02:30.900Z,21.25
2023-05-14T10:03:30.885Z,21.24
2023-05-14T10:04:30.907Z,21.25
2023-05-14T10:05:30.899Z,21.24
2023-05-14T10:06:30.894Z,21.25
2023-05-14T10:07:30.906Z,21.25
2023-05-14T10:08:30.892Z,21.24
2023-05-14T10:09:30.898Z,21.25
2023-05-14T10:10:30.888Z,21.25
2023-05-14T10:11:30.904Z,21.25
2023-05-14T10:12:30.907Z,21.25
2023-05-14T10:13:30.913Z,21.26
2023-05-14T10:14:30.913Z,21.25
2023-05-14T10:15:30.930Z,21.25
2023-05-14T10:16:30.940Z,21.26
2023-05-14T10:17:30.962Z,21.26
2023-05-14T10:18:30.929Z,21.26
2023-05-14T10:19:30.964Z,21.26
2023-05-14T10:20:30.922Z,21.26
2023-05-14T10:21:30.929Z,21.27
2023-05-14T10:22:30.924Z,21.27
2023-05-14T10:23:30.919Z,21.27
2023-05-14T10:24:30.925Z,21.27
2023-05-14T10:25:30.913Z,21.26
2023-05-14T10:26:30.924Z,21.26
2023-05-14T10:27:30.917Z,21.26
2023-05-14T10:28:30.913Z,21.26
2023-05-14T10:29:30.918Z,21.26
2023-05-14T10:30:30.906Z,21.27
2023-05-14T10:31:30.949Z,21.26
2023-05-14T10:32:30.994Z,21.26
2023-05-14T10:33:30.933Z,21.25
2023-05-14T10:34:30.922Z,21.26
2023-05-14T10:35:30.989Z,21.25
2023-05-14T10:36:30.908Z,21.26
2023-05-14T10:37:30.998Z,21.26
2023-05-14T10:38:30.938Z,21.25
2023-05-14T10:39:30.916Z,21.25
2023-05-14T10:40:30.947Z,21.26
2023-05-14T10:41:30.907Z,21.26
2023-05-14T10:42:30.901Z,21.27
2023-05-14T10:43:30.933Z,21.27
2023-05-14T10:44:30.897Z,21.27
2023-05-14T10:45:30.905Z,21.28
2023-05-14T10:46:30.915Z,21.28
2023-05-14T10:47:30.903Z,21.29
2023-05-14T10:48:30.890Z,21.29
2023-05-14T10:49:42.986Z,21.29
2023-05-14T10:50:31.877Z,21.30
2023-05-14T10:51:30.937Z,21.30
2023-05-14T10:52:30.864Z,21.31
2023-05-14T10:53:30.843Z,21.33
2023-05-14T10:54:30.840Z,21.33
2023-05-14T10:55:30.832Z,21.34
2023-05-14T10:56:30.818Z,21.34
2023-05-14T10:57:30.825Z,21.35
2023-05-14T10:58:30.811Z,21.36
2023-05-14T10:59:30.802Z,21.36
2023-05-14T11:00:30.798Z,21.37
2023-05-14T11:01:30.830Z,21.37
2023-05-14T11:02:30.809Z,21.38
2023-05-14T11:03:30.844Z,21.39
2023-05-14T11:04:30.874Z,21.39
2023-05-14T11:05:30.783Z,21.39
2023-05-14T11:06:30.751Z,21.39
2023-05-14T11:07:30.750Z,21.41
2023-05-14T11:08:30.734Z,21.41
2023-05-14T11:09:30.725Z,21.42
2023-05-14T11:10:30.724Z,21.42
2023-05-14T11:11:30.705Z,21.43
2023-05-14T11:12:30.701Z,21.43
2023-05-14T11:13:30.693Z,21.44
2023-05-14T11:14:30.734Z,21.44
2023-05-14T11:15:30.678Z,21.45
2023-05-14T11:16:30.706Z,21.44
2023-05-14T11:17:30.704Z,21.45
2023-05-14T11:18:30.689Z,21.46
2023-05-14T11:19:30.688Z,21.46
2023-05-14T11:20:30.704Z,21.45
2023-05-14T11:21:30.777Z,21.44
2023-05-14T11:22:30.736Z,21.44
2023-05-14T11:23:30.742Z,21.43
2023-05-14T11:24:30.785Z,21.42
2023-05-14T11:25:30.827Z,21.41
2023-05-14T11:26:30.811Z,21.41
2023-05-14T11:27:30.777Z,21.40
2023-05-14T11:28:30.898Z,21.39
2023-05-14T11:29:30.768Z,21.39
2023-05-14T11:30:30.764Z,21.38
2023-05-14T11:31:30.786Z,21.38
2023-05-14T11:32:30.803Z,21.39
2023-05-14T11:33:30.756Z,21.39
2023-05-14T11:34:30.781Z,21.39
2023-05-14T11:35:30.735Z,21.38
2023-05-14T11:36:30.735Z,21.38
2023-05-14T11:37:30.784Z,21.38
2023-05-14T11:38:30.732Z,21.38
2023-05-14T11:39:30.718Z,21.39
2023-05-14T11:40:30.723Z,21.39
2023-05-14T11:41:30.708Z,21.40
2023-05-14T11:42:30.696Z,21.39
2023-05-14T11:43:30.697Z,21.40
2023-05-14T11:44:30.695Z,21.38
2023-05-14T11:45:30.698Z,21.39
2023-05-14T11:46:30.878Z,21.38
2023-05-14T11:47:30.748Z,21.38
2023-05-14T11:48:30.690Z,21.37
2023-05-14T11:49:30.676Z,21.37
2023-05-14T11:50:30.680Z,21.38
2023-05-14T11:51:30.677Z,21.37
2023-05-14T11:52:30.670Z,21.37
2023-05-14T11:53:30.672Z,21.37
2023-05-14T11:54:30.675Z,21.35
2023-05-14T11:55:30.683Z,21.35
2023-05-14T11:56:30.669Z,21.34
2023-05-14T11:57:30.654Z,21.34
2023-05-14T11:58:30.664Z,21.33
2023-05-14T11:59:30.646Z,21.35
2023-05-14T12:00:30.652Z,21.35
2023-05-14T12:01:30.649Z,21.35
2023-05-14T12:02:30.723Z,21.35
2023-05-14T12:03:30.797Z,21.34
2023-05-14T12:04:30.722Z,21.34
2023-05-14T12:05:30.614Z,21.33
2023-05-14T12:06:30.607Z,21.33
2023-05-14T12:07:30.620Z,21.33
2023-05-14T12:08:30.606Z,21.32
2023-05-14T12:09:30.626Z,21.33
2023-05-14T12:10:30.596Z,21.33
2023-05-14T12:11:30.592Z,21.33
2023-05-14T12:12:30.591Z,21.33
2023-05-14T12:13:30.600Z,21.32
2023-05-14T12:14:30.592Z,21.32
2023-05-14T12:15:30.591Z,21.32
2023-05-14T12:16:30.618Z,21.32
2023-05-14T12:17:30.626Z,21.32
2023-05-14T12:18:30.728Z,21.31
2023-05-14T12:19:30.598Z,21.31
2023-05-14T12:20:30.586Z,21.31
2023-05-14T12:21:30.583Z,21.31
2023-05-14T12:22:30.586Z,21.31
2023-05-14T12:23:30.576Z,21.32
2023-05-14T12:24:30.595Z,21.32
2023-05-14T12:25:30.579Z,21.32
2023-05-14T12:26:30.575Z,21.32
2023-05-14T12:27:30.572Z,21.35
2023-05-14T12:28:30.566Z,21.36
2023-05-14T12:29:30.565Z,21.37
2023-05-14T12:30:30.572Z,21.38
2023-05-14T12:31:30.611Z,21.38
2023-05-14T12:32:30.568Z,21.37
2023-05-14T12:33:30.541Z,21.36
2023-05-14T12:34:30.543Z,21.36
2023-05-14T12:35:30.529Z,21.35
2023-05-14T12:36:30.528Z,21.35
2023-05-14T12:37:31.352Z,21.34
2023-05-14T12:38:30.536Z,21.32
2023-05-14T12:39:30.534Z,21.30
2023-05-14T12:40:30.526Z,21.29
2023-05-14T12:41:30.539Z,21.27
2023-05-14T12:42:30.523Z,21.26
2023-05-14T12:43:30.530Z,21.25
2023-05-14T12:44:30.537Z,21.24
2023-05-14T12:45:30.542Z,21.22
2023-05-14T12:46:30.555Z,21.21
2023-05-14T12:47:30.554Z,21.20
2023-05-14T12:48:30.548Z,21.19
2023-05-14T12:49:30.551Z,21.18
2023-05-14T12:50:30.548Z,21.18
2023-05-14T12:51:30.566Z,21.17
2023-05-14T12:52:37.392Z,21.16
2023-05-14T12:53:31.558Z,21.15